Seale, Alabama
Current Conditions -  °F | °C
As of 4:18 PM on Sunday 21 Dec 2014 (Local Time) from KLSF Reporting Station
Overcast Overcast  
Wind Chill: 52°   Ceiling: 1600
Heat Index: 52°   Visibility: 7mi
Dew Point: 50°   Wind: 2mph
Humidity: 94%   Direction: 40°NE
Pressure: 30.07"   Gusts: NA
Location:  32.3°N, 85.17°W
Report Text: KLSF 212218Z AUTO 04002KT 7SM OVC016 11/10 A3007 RMK AO2
Loading
Personal Weather Stations






























Interactive Weather Map New forecast layout! Learn more

10-Day Weather Forecast

Advertisements
Track Severe Weather on mobile